Tomato, Arkansas
Current Conditions -  °F | °C
As of 7:53 PM on Sunday 21 Dec 2014 (Local Time) from KHKA Reporting Station
Overcast Overcast  
Wind Chill: 41°   Ceiling: 10000
Heat Index: 44°   Visibility: 10mi
Dew Point: 37°   Wind: 6mph
Humidity: 76%   Direction: 80°E
Pressure: 30"   Gusts: NA
Location:  35.84°N, 89.74°W
Report Text: KHKA 220153Z AUTO 08005KT 10SM OVC100 07/03 A3000 RMK AO2 SLP160 T00670028
Loading
Personal Weather Stations






























Interactive Weather Map New forecast layout! Learn more

10-Day Weather Forecast

Advertisements
Track Severe Weather on mobile